createdAt,value
2023-04-22T00:02:19.352Z,99843.66
2023-04-22T00:04:46.568Z,99839.84
2023-04-22T00:07:15.158Z,99843.06
2023-04-22T00:09:42.689Z,99855.53
2023-04-22T00:12:11.690Z,99847.72
2023-04-22T00:14:38.864Z,99846.38
2023-04-22T00:17:07.081Z,99853.38
2023-04-22T00:19:34.892Z,99857.19
2023-04-22T00:22:01.860Z,99845.31
2023-04-22T00:24:29.402Z,99846.63
2023-04-22T00:26:56.284Z,99840.13
2023-04-22T00:29:22.991Z,99839.88
2023-04-22T00:31:49.784Z,99839.59
2023-04-22T00:34:18.308Z,99832.81
2023-04-22T00:36:46.024Z,99830.94
2023-04-22T00:39:12.774Z,99834.97
2023-04-22T00:41:40.125Z,99835.53
2023-04-22T00:44:11.188Z,99831.22
2023-04-22T00:46:39.767Z,99828.31
2023-04-22T00:49:08.682Z,99824.25
2023-04-22T00:51:36.495Z,99825.63
2023-04-22T00:54:04.619Z,99829.16
2023-04-22T00:56:33.800Z,99834.50
2023-04-22T00:59:00.464Z,99824.00
2023-04-22T01:01:27.974Z,99821.00
2023-04-22T01:03:55.081Z,99812.09
2023-04-22T01:06:23.997Z,99822.63
2023-04-22T01:08:51.136Z,99818.34
2023-04-22T01:11:18.747Z,99820.75
2023-04-22T01:13:45.993Z,99826.13
2023-04-22T01:16:13.301Z,99824.78
2023-04-22T01:18:40.348Z,99828.25
2023-04-22T01:21:07.266Z,99827.44
2023-04-22T01:23:34.179Z,99838.81
2023-04-22T01:26:01.073Z,99841.28
2023-04-22T01:28:29.096Z,99846.13
2023-04-22T01:30:56.318Z,99846.41
2023-04-22T01:33:23.734Z,99841.28
2023-04-22T01:35:50.765Z,99839.41
2023-04-22T01:38:18.100Z,99841.28
2023-04-22T01:40:44.759Z,99836.44
2023-04-22T01:43:11.383Z,99828.59
2023-04-22T01:45:39.091Z,99831.84
2023-04-22T01:48:09.112Z,99829.16
2023-04-22T01:50:37.251Z,99833.47
2023-04-22T01:53:04.058Z,99835.34
2023-04-22T01:55:31.316Z,99836.66
2023-04-22T01:57:58.184Z,99828.63
2023-04-22T02:00:24.924Z,99836.16
2023-04-22T02:02:52.050Z,99827.25
2023-04-22T02:05:18.915Z,99831.84
2023-04-22T02:07:46.848Z,99830.22
2023-04-22T02:10:16.665Z,99838.31
2023-04-22T02:12:44.483Z,99834.25
2023-04-22T02:15:13.870Z,99832.66
2023-04-22T02:17:42.598Z,99827.50
2023-04-22T02:20:11.357Z,99832.09
2023-04-22T02:22:39.076Z,99839.41
2023-04-22T02:25:06.231Z,99838.84
2023-04-22T02:27:33.277Z,99838.28
2023-04-22T02:29:59.991Z,99835.59
2023-04-22T02:32:26.796Z,99838.84
2023-04-22T02:34:53.498Z,99836.13
2023-04-22T02:37:22.823Z,99832.38
2023-04-22T02:39:49.896Z,99838.56
2023-04-22T02:42:17.340Z,99844.53
2023-04-22T02:44:44.081Z,99846.38
2023-04-22T02:47:10.940Z,99855.25
2023-04-22T02:49:37.825Z,99847.16
2023-04-22T02:52:05.158Z,99848.53
2023-04-22T02:54:31.954Z,99845.56
2023-04-22T02:56:58.895Z,99861.47
2023-04-22T02:59:26.092Z,99863.63
2023-04-22T03:01:53.030Z,99854.75
2023-04-22T03:04:40.036Z,99857.69
2023-04-22T03:07:06.711Z,99846.91
2023-04-22T03:09:34.677Z,99851.22
2023-04-22T03:12:02.572Z,99856.06
2023-04-22T03:14:30.084Z,99854.72
2023-04-22T03:16:57.147Z,99852.84
2023-04-22T03:19:23.853Z,99866.06
2023-04-22T03:21:50.538Z,99866.34
2023-04-22T03:24:17.692Z,99857.16
2023-04-22T03:26:49.121Z,99857.16
2023-04-22T03:29:15.858Z,99851.75
2023-04-22T03:31:43.377Z,99849.59
2023-04-22T03:34:10.443Z,99849.88
2023-04-22T03:36:37.788Z,99852.03
2023-04-22T03:39:05.105Z,99847.97
2023-04-22T03:41:33.485Z,99846.91
2023-04-22T03:44:01.781Z,99841.50
2023-04-22T03:46:30.196Z,99842.06
2023-04-22T03:49:06.504Z,99835.03
2023-04-22T03:51:35.124Z,99837.72
2023-04-22T03:54:07.335Z,99830.19
2023-04-22T03:56:37.541Z,99828.00
2023-04-22T03:59:06.121Z,99829.63
2023-04-22T04:01:34.052Z,99821.56
2023-04-22T04:04:04.688Z,99827.44
2023-04-22T04:06:44.309Z,99826.88
2023-04-22T04:09:11.271Z,99817.75
2023-04-22T04:11:38.568Z,99816.69
2023-04-22T04:14:05.361Z,99832.56
2023-04-22T04:16:48.733Z,99826.38
2023-04-22T04:19:24.238Z,99831.53
2023-04-22T04:21:51.904Z,99832.81
2023-04-22T04:24:19.972Z,99828.41
2023-04-22T04:26:49.498Z,99820.59
2023-04-22T04:29:21.503Z,99828.41
2023-04-22T04:31:59.251Z,99816.88
2023-04-22T04:34:28.683Z,99817.16
2023-04-22T04:36:56.961Z,99820.38
2023-04-22T04:39:32.936Z,99816.38
2023-04-22T04:42:01.429Z,99816.88
2023-04-22T04:44:33.814Z,99824.31
2023-04-22T04:47:05.193Z,99822.91
2023-04-22T04:49:31.932Z,99820.44
2023-04-22T04:52:01.758Z,99815.81
2023-04-22T04:54:29.129Z,99820.03
2023-04-22T04:56:58.483Z,99818.28
2023-04-22T04:59:26.044Z,99817.69
2023-04-22T05:01:54.296Z,99823.13
2023-04-22T05:04:21.999Z,99819.09
2023-04-22T05:06:49.077Z,99822.84
2023-04-22T05:09:15.785Z,99828.25
2023-04-22T05:11:44.032Z,99825.78
2023-04-22T05:14:16.033Z,99827.44
2023-04-22T05:16:45.644Z,99835.88
2023-04-22T05:19:13.382Z,99836.44
2023-04-22T05:21:41.969Z,99840.72
2023-04-22T05:24:08.831Z,99841.25
2023-04-22T05:26:36.082Z,99845.19
2023-04-22T05:29:08.739Z,99845.94
2023-04-22T05:31:35.613Z,99856.19
2023-04-22T05:34:02.326Z,99842.50
2023-04-22T05:36:31.456Z,99851.06
2023-04-22T05:38:59.548Z,99856.72
2023-04-22T05:41:27.123Z,99848.09
2023-04-22T05:43:56.266Z,99860.00
2023-04-22T05:46:23.268Z,99848.31
2023-04-22T05:48:51.236Z,99856.88
2023-04-22T05:51:47.288Z,99855.19
2023-04-22T05:54:18.370Z,99854.13
2023-04-22T05:56:45.224Z,99862.00
2023-04-22T05:59:11.976Z,99854.19
2023-04-22T06:01:38.806Z,99864.44
2023-04-22T06:04:09.954Z,99866.16
2023-04-22T06:06:37.123Z,99856.50
2023-04-22T06:09:03.988Z,99871.06
2023-04-22T06:11:30.731Z,99875.41
2023-04-22T06:13:57.420Z,99880.34
2023-04-22T06:16:24.145Z,99881.72
2023-04-22T06:18:51.187Z,99874.44
2023-04-22T06:21:17.925Z,99873.09
2023-04-22T06:23:44.640Z,99878.75
2023-04-22T06:26:11.625Z,99873.31
2023-04-22T06:28:38.488Z,99870.34
2023-04-22T06:31:10.851Z,99863.00
2023-04-22T06:33:38.172Z,99858.91
2023-04-22T06:36:05.658Z,99863.09
2023-04-22T06:38:33.626Z,99863.28
2023-04-22T06:41:23.526Z,99855.47
2023-04-22T06:43:52.512Z,99856.34
2023-04-22T06:46:44.938Z,99853.69
2023-04-22T06:49:39.564Z,99864.00
2023-04-22T06:52:18.263Z,99855.69
2023-04-22T06:54:45.653Z,99858.03
2023-04-22T06:57:12.338Z,99857.09
2023-04-22T06:59:39.500Z,99863.84
2023-04-22T07:02:07.628Z,99868.41
2023-04-22T07:04:37.467Z,99872.72
2023-04-22T07:07:04.854Z,99869.59
2023-04-22T07:09:31.854Z,99868.00
2023-04-22T07:11:59.142Z,99862.88
2023-04-22T07:14:29.295Z,99868.00
2023-04-22T07:16:56.135Z,99868.97
2023-04-22T07:19:22.942Z,99868.59
2023-04-22T07:21:49.628Z,99861.34
2023-04-22T07:24:16.612Z,99854.16
2023-04-22T07:26:44.915Z,99857.03
2023-04-22T07:29:12.954Z,99853.22
2023-04-22T07:31:41.320Z,99848.41
2023-04-22T07:34:10.505Z,99851.38
2023-04-22T07:36:37.451Z,99854.09
2023-04-22T07:39:04.240Z,99851.88
2023-04-22T07:41:31.668Z,99853.84
2023-04-22T07:43:58.345Z,99856.81
2023-04-22T07:46:25.149Z,99857.66
2023-04-22T07:48:51.794Z,99850.75
2023-04-22T07:51:18.441Z,99856.41
2023-04-22T07:53:45.571Z,99854.09
2023-04-22T07:56:13.000Z,99854.75
2023-04-22T07:58:40.738Z,99843.44
2023-04-22T08:01:07.499Z,99853.06
2023-04-22T08:03:34.381Z,99857.06
2023-04-22T08:06:01.292Z,99851.50
2023-04-22T08:08:28.116Z,99848.88
2023-04-22T08:10:54.808Z,99855.41
2023-04-22T08:13:21.504Z,99851.28
2023-04-22T08:15:48.178Z,99853.19
2023-04-22T08:18:15.175Z,99857.56
2023-04-22T08:20:41.803Z,99856.34
2023-04-22T08:23:08.446Z,99851.63
2023-04-22T08:25:35.393Z,99845.75
2023-04-22T08:28:02.421Z,99845.16
2023-04-22T08:30:29.173Z,99852.59
2023-04-22T08:32:56.085Z,99849.22
2023-04-22T08:35:22.826Z,99852.69
2023-04-22T08:37:49.467Z,99851.16
2023-04-22T08:40:16.358Z,99854.03
2023-04-22T08:42:44.636Z,99856.41
2023-04-22T08:45:13.186Z,99851.66
2023-04-22T08:47:41.236Z,99847.66
2023-04-22T08:50:09.643Z,99846.25
2023-04-22T08:52:36.652Z,99844.78
2023-04-22T08:55:04.046Z,99841.47
2023-04-22T08:57:32.075Z,99837.69
2023-04-22T08:59:59.317Z,99843.59
2023-04-22T09:02:27.067Z,99836.75
2023-04-22T09:04:54.083Z,99836.38
2023-04-22T09:07:26.898Z,99828.72
2023-04-22T09:09:55.539Z,99824.34
2023-04-22T09:12:22.702Z,99828.78
2023-04-22T09:14:49.481Z,99824.34
2023-04-22T09:17:17.612Z,99829.78
2023-04-22T09:19:45.712Z,99822.31
2023-04-22T09:22:16.145Z,99819.22
2023-04-22T09:24:49.009Z,99821.81
2023-04-22T09:27:17.628Z,99817.66
2023-04-22T09:29:52.302Z,99815.66
2023-04-22T09:32:19.480Z,99820.16
2023-04-22T09:34:52.227Z,99812.78
2023-04-22T09:37:30.813Z,99815.13
2023-04-22T09:40:04.188Z,99805.38
2023-04-22T09:42:31.296Z,99805.97
2023-04-22T09:45:00.006Z,99809.84
2023-04-22T09:47:36.650Z,99806.16
2023-04-22T09:50:06.809Z,99802.53
2023-04-22T09:52:33.558Z,99808.53
2023-04-22T09:55:00.214Z,99798.13
2023-04-22T09:57:27.703Z,99801.66
2023-04-22T09:59:58.950Z,99799.28
2023-04-22T10:02:29.884Z,99804.41
2023-04-22T10:04:58.430Z,99796.25
2023-04-22T10:07:31.252Z,99798.97
2023-04-22T10:09:58.395Z,99793.22
2023-04-22T10:12:35.286Z,99786.72
2023-04-22T10:15:07.663Z,99786.22
2023-04-22T10:17:38.050Z,99790.97
2023-04-22T10:20:13.656Z,99788.88
2023-04-22T10:22:42.812Z,99789.41
2023-04-22T10:25:23.529Z,99788.31
2023-04-22T10:28:03.164Z,99782.56
2023-04-22T10:30:32.219Z,99782.22
2023-04-22T10:33:27.462Z,99782.69
2023-04-22T10:36:10.689Z,99783.47
2023-04-22T10:38:57.714Z,99788.06
2023-04-22T10:41:33.385Z,99790.22
2023-04-22T10:44:05.684Z,99780.09
2023-04-22T10:46:37.375Z,99771.28
2023-04-22T10:49:15.691Z,99774.22
2023-04-22T10:51:46.750Z,99770.44
2023-04-22T10:54:26.925Z,99769.66
2023-04-22T10:57:08.743Z,99762.00
2023-04-22T11:00:00.333Z,99765.91
2023-04-22T11:02:27.494Z,99764.94
2023-04-22T11:05:21.903Z,99766.88
2023-04-22T11:07:52.419Z,99761.00
2023-04-22T11:10:44.376Z,99751.19
2023-04-22T11:13:29.479Z,99749.66
2023-04-22T11:15:56.309Z,99764.28
2023-04-22T11:18:26.089Z,99759.97
2023-04-22T11:20:53.694Z,99756.13
2023-04-22T11:23:27.223Z,99754.22
2023-04-22T11:26:02.753Z,99750.22
2023-04-22T11:28:29.642Z,99753.28
2023-04-22T11:31:06.840Z,99756.94
2023-04-22T11:33:34.701Z,99751.03
2023-04-22T11:36:01.672Z,99753.22
2023-04-22T11:38:28.797Z,99751.66
2023-04-22T11:40:58.376Z,99755.34
2023-04-22T11:43:26.108Z,99743.78
2023-04-22T11:45:55.766Z,99747.41
2023-04-22T11:48:23.011Z,99749.31
2023-04-22T11:51:06.925Z,99748.56
2023-04-22T11:53:33.689Z,99742.72
2023-04-22T11:56:03.762Z,99741.59
2023-04-22T11:58:30.615Z,99745.28
2023-04-22T12:00:59.226Z,99735.03
2023-04-22T12:03:30.200Z,99731.09
2023-04-22T12:06:00.913Z,99730.50
2023-04-22T12:08:31.895Z,99739.94
2023-04-22T12:11:04.122Z,99728.13
2023-04-22T12:13:34.192Z,99734.66
2023-04-22T12:16:02.779Z,99732.59
2023-04-22T12:18:34.670Z,99735.38
2023-04-22T12:21:04.765Z,99739.56
2023-04-22T12:23:44.490Z,99743.91
2023-04-22T12:26:12.907Z,99743.81
2023-04-22T12:28:41.099Z,99742.66
2023-04-22T12:31:08.969Z,99740.91
2023-04-22T12:33:37.334Z,99737.72
2023-04-22T12:36:05.638Z,99741.41
2023-04-22T12:38:32.765Z,99749.06
2023-04-22T12:40:59.656Z,99744.09
2023-04-22T12:43:26.541Z,99747.00
2023-04-22T12:45:53.395Z,99738.50
2023-04-22T12:48:20.641Z,99744.59
2023-04-22T12:50:47.342Z,99738.47
2023-04-22T12:53:16.176Z,99730.28
2023-04-22T12:55:45.373Z,99733.03
2023-04-22T12:58:12.872Z,99745.88
2023-04-22T13:00:40.041Z,99741.03
2023-04-22T13:03:07.364Z,99752.75
2023-04-22T13:05:34.212Z,99757.06
2023-04-22T13:08:07.092Z,99751.16
2023-04-22T13:10:35.642Z,99754.81
2023-04-22T13:13:17.536Z,99759.63
2023-04-22T13:15:45.525Z,99756.88
2023-04-22T13:18:12.356Z,99754.97
2023-04-22T13:20:39.996Z,99768.91
2023-04-22T13:23:06.674Z,99764.72
2023-04-22T13:25:33.399Z,99756.22
2023-04-22T13:28:00.154Z,99764.38
2023-04-22T13:30:27.071Z,99770.66
2023-04-22T13:32:53.853Z,99765.63
2023-04-22T13:35:20.736Z,99769.47
2023-04-22T13:37:47.527Z,99764.03
2023-04-22T13:40:14.289Z,99779.72
2023-04-22T13:42:41.180Z,99767.06
2023-04-22T13:45:08.472Z,99769.31
2023-04-22T13:47:35.445Z,99772.13
2023-04-22T13:50:02.505Z,99768.22
2023-04-22T13:52:30.603Z,99763.22
2023-04-22T13:54:57.260Z,99760.84
2023-04-22T13:57:23.936Z,99758.94
2023-04-22T13:59:50.665Z,99753.00
2023-04-22T14:02:17.815Z,99764.59
2023-04-22T14:04:44.570Z,99761.72
2023-04-22T14:07:12.106Z,99753.31
2023-04-22T14:09:39.147Z,99761.00
2023-04-22T14:12:07.963Z,99756.69
2023-04-22T14:14:34.701Z,99757.47
2023-04-22T14:17:01.477Z,99762.75
2023-04-22T14:19:30.243Z,99759.25
2023-04-22T14:21:57.665Z,99750.38
2023-04-22T14:24:24.774Z,99757.34
2023-04-22T14:26:52.293Z,99745.97
2023-04-22T14:29:19.194Z,99755.28
2023-04-22T14:31:45.895Z,99754.13
2023-04-22T14:34:12.693Z,99752.22
2023-04-22T14:36:39.384Z,99753.22
2023-04-22T14:39:06.252Z,99753.41
2023-04-22T14:41:33.118Z,99750.53
2023-04-22T14:44:00.212Z,99745.41
2023-04-22T14:46:27.002Z,99749.56
2023-04-22T14:48:53.655Z,99753.44
2023-04-22T14:51:21.111Z,99742.84
2023-04-22T14:53:47.925Z,99737.09
2023-04-22T14:56:14.705Z,99746.19
2023-04-22T14:58:41.494Z,99741.47
2023-04-22T15:01:08.386Z,99737.81
2023-04-22T15:03:35.819Z,99730.41
2023-04-22T15:06:03.043Z,99728.97
2023-04-22T15:08:29.996Z,99734.78
2023-04-22T15:10:56.923Z,99740.88
2023-04-22T15:13:23.898Z,99743.13
2023-04-22T15:15:50.698Z,99737.97
2023-04-22T15:18:17.496Z,99738.25
2023-04-22T15:20:44.357Z,99732.53
2023-04-22T15:23:11.207Z,99736.84
2023-04-22T15:25:38.205Z,99743.41
2023-04-22T15:28:04.979Z,99738.25
2023-04-22T15:30:31.690Z,99744.84
2023-04-22T15:32:58.485Z,99732.44
2023-04-22T15:35:25.275Z,99740.69
2023-04-22T15:37:52.837Z,99746.34
2023-04-22T15:40:19.817Z,99745.22
2023-04-22T15:42:47.026Z,99740.38
2023-04-22T15:45:13.739Z,99743.59
2023-04-22T15:47:41.667Z,99736.22
2023-04-22T15:50:09.723Z,99739.44
2023-04-22T15:52:38.136Z,99736.72
2023-04-22T15:55:06.496Z,99736.88
2023-04-22T15:57:35.408Z,99734.78
2023-04-22T16:00:13.389Z,99736.09
2023-04-22T16:02:44.977Z,99740.56
2023-04-22T16:05:13.872Z,99738.94
2023-04-22T16:07:40.683Z,99737.66
2023-04-22T16:10:09.273Z,99746.94
2023-04-22T16:12:36.180Z,99742.13
2023-04-22T16:15:02.924Z,99728.19
2023-04-22T16:17:32.014Z,99733.78
2023-04-22T16:19:58.867Z,99738.94
2023-04-22T16:22:25.579Z,99746.56
2023-04-22T16:24:52.365Z,99743.72
2023-04-22T16:27:19.244Z,99736.47
2023-04-22T16:29:46.072Z,99741.75
2023-04-22T16:32:12.838Z,99746.06
2023-04-22T16:34:39.664Z,99745.28
2023-04-22T16:37:06.498Z,99744.28
2023-04-22T16:39:33.734Z,99741.34
2023-04-22T16:42:02.283Z,99736.22
2023-04-22T16:44:29.213Z,99736.69
2023-04-22T16:46:56.082Z,99733.78
2023-04-22T16:49:22.833Z,99735.06
2023-04-22T16:51:49.867Z,99733.13
2023-04-22T16:54:16.551Z,99736.66
2023-04-22T16:56:43.248Z,99735.53
2023-04-22T16:59:10.219Z,99732.66
2023-04-22T17:01:37.363Z,99732.97
2023-04-22T17:04:04.197Z,99736.00
2023-04-22T17:06:31.188Z,99737.94
2023-04-22T17:08:59.828Z,99737.63
2023-04-22T17:11:26.562Z,99731.84
2023-04-22T17:13:53.319Z,99733.94
2023-04-22T17:16:20.931Z,99738.53
2023-04-22T17:18:47.845Z,99739.63
2023-04-22T17:21:15.138Z,99742.84
2023-04-22T17:23:42.071Z,99746.19
2023-04-22T17:26:08.826Z,99740.28
2023-04-22T17:28:35.644Z,99751.16
2023-04-22T17:31:03.860Z,99743.00
2023-04-22T17:33:31.204Z,99743.75
2023-04-22T17:35:57.959Z,99749.19
2023-04-22T17:38:24.968Z,99748.69
2023-04-22T17:40:51.653Z,99740.03
2023-04-22T17:43:18.317Z,99742.47
2023-04-22T17:45:45.201Z,99745.19
2023-04-22T17:48:11.961Z,99744.69
2023-04-22T17:50:38.829Z,99746.28
2023-04-22T17:53:05.530Z,99744.47
2023-04-22T17:55:35.078Z,99753.13
2023-04-22T17:58:02.572Z,99754.06
2023-04-22T18:00:30.028Z,99753.31
2023-04-22T18:02:57.059Z,99759.81
2023-04-22T18:05:23.996Z,99764.53
2023-04-22T18:07:50.855Z,99770.78
2023-04-22T18:10:17.533Z,99782.28
2023-04-22T18:12:44.204Z,99780.25
2023-04-22T18:15:10.989Z,99778.53
2023-04-22T18:17:37.851Z,99790.69
2023-04-22T18:20:16.641Z,99787.66
2023-04-22T18:22:45.469Z,99789.81
2023-04-22T18:25:12.268Z,99800.72
2023-04-22T18:27:38.995Z,99797.50
2023-04-22T18:30:06.394Z,99797.00
2023-04-22T18:32:33.300Z,99800.34
2023-04-22T18:35:00.048Z,99799.44
2023-04-22T18:37:30.577Z,99815.56
2023-04-22T18:39:57.497Z,99817.16
2023-04-22T18:42:24.434Z,99818.38
2023-04-22T18:44:51.684Z,99815.44
2023-04-22T18:47:18.405Z,99826.75
2023-04-22T18:49:45.296Z,99822.91
2023-04-22T18:52:12.222Z,99824.94
2023-04-22T18:54:39.604Z,99833.91
2023-04-22T18:57:06.838Z,99834.28
2023-04-22T18:59:33.527Z,99833.31
2023-04-22T19:02:00.347Z,99834.91
2023-04-22T19:04:27.663Z,99838.44
2023-04-22T19:06:56.857Z,99833.31
2023-04-22T19:09:24.011Z,99840.34
2023-04-22T19:11:50.877Z,99843.06
2023-04-22T19:14:17.517Z,99845.66
2023-04-22T19:16:44.264Z,99842.94
2023-04-22T19:19:12.041Z,99843.25
2023-04-22T19:21:39.676Z,99844.72
2023-04-22T19:24:06.940Z,99839.19
2023-04-22T19:26:34.002Z,99844.84
2023-04-22T19:29:01.119Z,99834.56
2023-04-22T19:31:28.985Z,99841.78
2023-04-22T19:33:55.887Z,99849.03
2023-04-22T19:36:22.774Z,99849.25
2023-04-22T19:38:49.574Z,99846.41
2023-04-22T19:41:16.570Z,99849.84
2023-04-22T19:43:43.431Z,99854.97
2023-04-22T19:46:10.277Z,99861.00
2023-04-22T19:48:37.501Z,99860.56
2023-04-22T19:51:06.112Z,99858.47
2023-04-22T19:53:33.651Z,99854.91
2023-04-22T19:56:00.857Z,99852.31
2023-04-22T19:58:28.556Z,99857.47
2023-04-22T20:00:55.849Z,99862.50
2023-04-22T20:03:23.180Z,99862.94
2023-04-22T20:05:50.385Z,99861.25
2023-04-22T20:08:19.760Z,99861.34
2023-04-22T20:10:49.171Z,99866.84
2023-04-22T20:13:16.860Z,99865.31
2023-04-22T20:15:44.401Z,99868.69
2023-04-22T20:18:11.817Z,99872.63
2023-04-22T20:20:40.408Z,99870.22
2023-04-22T20:23:10.491Z,99876.59
2023-04-22T20:25:42.079Z,99862.28
2023-04-22T20:28:10.619Z,99867.50
2023-04-22T20:30:39.096Z,99871.56
2023-04-22T20:33:06.153Z,99877.50
2023-04-22T20:35:35.608Z,99873.47
2023-04-22T20:38:03.548Z,99873.25
2023-04-22T20:40:30.679Z,99875.22
2023-04-22T20:42:58.662Z,99875.22
2023-04-22T20:45:27.220Z,99869.34
2023-04-22T20:47:54.121Z,99866.16
2023-04-22T20:50:20.958Z,99869.19
2023-04-22T20:52:48.957Z,99867.28
2023-04-22T20:55:16.763Z,99866.41
2023-04-22T20:57:43.489Z,99862.91
2023-04-22T21:00:10.709Z,99865.09
2023-04-22T21:02:43.636Z,99865.09
2023-04-22T21:05:11.876Z,99867.28
2023-04-22T21:07:39.420Z,99868.53
2023-04-22T21:10:07.367Z,99872.03
2023-04-22T21:12:34.538Z,99863.13
2023-04-22T21:15:01.515Z,99862.72
2023-04-22T21:17:32.439Z,99859.38
2023-04-22T21:20:01.291Z,99855.28
2023-04-22T21:22:29.483Z,99852.88
2023-04-22T21:24:56.885Z,99848.75
2023-04-22T21:27:23.785Z,99854.31
2023-04-22T21:29:50.821Z,99851.78
2023-04-22T21:32:20.046Z,99853.28
2023-04-22T21:34:46.889Z,99855.06
2023-04-22T21:37:13.875Z,99852.06
2023-04-22T21:39:40.862Z,99855.19
2023-04-22T21:42:08.643Z,99854.38
2023-04-22T21:44:37.229Z,99859.28
2023-04-22T21:47:05.151Z,99863.81
2023-04-22T21:49:32.101Z,99862.56
2023-04-22T21:51:59.303Z,99856.69
2023-04-22T21:54:26.840Z,99863.56
2023-04-22T21:56:54.204Z,99863.59
2023-04-22T21:59:20.932Z,99862.06
2023-04-22T22:01:47.819Z,99859.09
2023-04-22T22:04:15.947Z,99858.78
2023-04-22T22:06:45.199Z,99857.75
2023-04-22T22:09:12.762Z,99859.22
2023-04-22T22:11:39.580Z,99862.38
2023-04-22T22:14:06.353Z,99864.94
2023-04-22T22:16:33.350Z,99866.91
2023-04-22T22:19:02.744Z,99862.59
2023-04-22T22:21:29.766Z,99865.81
2023-04-22T22:23:57.839Z,99867.06
2023-04-22T22:26:26.205Z,99873.53
2023-04-22T22:28:53.090Z,99870.28
2023-04-22T22:31:20.045Z,99868.69
2023-04-22T22:33:46.949Z,99870.13
2023-04-22T22:36:13.894Z,99879.56
2023-04-22T22:38:40.843Z,99873.63
2023-04-22T22:41:07.966Z,99876.91
2023-04-22T22:43:34.729Z,99880.94
2023-04-22T22:46:01.803Z,99872.09
2023-04-22T22:48:28.951Z,99875.81
2023-04-22T22:50:56.613Z,99884.59
2023-04-22T22:53:23.342Z,99877.56
2023-04-22T22:55:49.996Z,99880.88
2023-04-22T22:58:16.857Z,99880.78
2023-04-22T23:00:43.580Z,99884.28
2023-04-22T23:03:10.653Z,99876.63
2023-04-22T23:05:37.796Z,99880.47
2023-04-22T23:08:04.709Z,99874.28
2023-04-22T23:10:31.524Z,99884.03
2023-04-22T23:12:58.356Z,99875.97
2023-04-22T23:15:25.108Z,99868.91
2023-04-22T23:17:52.232Z,99871.91
2023-04-22T23:20:20.462Z,99875.41
2023-04-22T23:22:49.509Z,99858.97
2023-04-22T23:25:18.347Z,99864.06
2023-04-22T23:27:45.318Z,99868.88
2023-04-22T23:30:12.577Z,99862.13
2023-04-22T23:32:40.557Z,99863.78
2023-04-22T23:35:08.626Z,99861.66
2023-04-22T23:37:37.582Z,99869.16
2023-04-22T23:40:04.877Z,99868.09
2023-04-22T23:42:32.312Z,99862.22
2023-04-22T23:44:59.047Z,99866.25
2023-04-22T23:47:26.032Z,99868.19
2023-04-22T23:49:52.870Z,99867.13
2023-04-22T23:52:20.331Z,99862.28
2023-04-22T23:54:47.362Z,99871.44
2023-04-22T23:57:14.351Z,99866.88
2023-04-22T23:59:41.528Z,99859.88
